PWSweather.com
Personal Weather Stations
Station Observations
KNYSYRAC2
Fairmount Hills, Fairmount, NY 13219

Fairmount HillsFairmount, NY 13219

Lat: 43.03602, Lon: -76.247151

Elevation: 663

Station Type: Ambient Weather WS-2080

http://weather.cerchia.com

High Low Average
Temperature 82.8°F28.2°F 64.8°F18.2°F 70.0°F21.1°F
Dew Point 72.2°F22.3°F 63.7°F17.6°F 67.5°F19.7°F
Winds 4.7 mph SW7.6 mph SW Calm Calm 1.1 mph 1.8 mph
Wind Gusts 6.0 mph9.7 mph -- 1.9 mph3.1 mph
Humidity 100% 65% 92%
Pressure 30.01 in1016.30 in 29.95 in1014.20 in -
Precipitation 1.64 in41.70 in - -
Hour Temp Dew Point Humidity Winds Wind Gusts Pressure Precip Precip Rate Daily Precip Total
12:00 AM 66.8°F19.3°C 66.6°F19.2°C 99% Calm Calm -- 29.98 in1015.2 mb 0.00 in0.0 mm 0.00 in/hr0.0 mm/hr 0.00 in0.0 mm
12:15 AM 67.0°F19.4°C 66.7°F19.3°C 99% Calm Calm -- 29.98 in1015.2 mb 0.00 in0.0 mm 0.00 in/hr0.0 mm/hr 0.00 in0.0 mm
12:30 AM 67.0°F19.4°C 66.7°F19.3°C 99% Calm Calm -- 29.98 in1015.2 mb 0.00 in0.0 mm 0.00 in/hr0.0 mm/hr 0.00 in0.0 mm
12:45 AM 67.0°F19.4°C 66.7°F19.3°C 99% Calm Calm -- 29.97 in1014.9 mb 0.00 in0.0 mm 0.00 in/hr0.0 mm/hr 0.00 in0.0 mm
01:00 AM 67.0°F19.4°C 66.7°F19.3°C 99% Calm Calm -- 29.97 in1014.9 mb 0.00 in0.0 mm 0.00 in/hr0.0 mm/hr 0.00 in0.0 mm
01:15 AM 67.2°F19.6°C 66.9°F19.4°C 99% 0.7 mph SE1.1 kmh SE 1.6 mph2.6 kmh 29.97 in1014.9 mb 0.00 in0.0 mm 0.00 in/hr0.0 mm/hr 0.00 in0.0 mm
01:30 AM 67.0°F19.4°C 66.7°F19.3°C 99% 0.9 mph SE1.4 kmh SE 1.6 mph2.6 kmh 29.96 in1014.6 mb 0.00 in0.0 mm 0.00 in/hr0.0 mm/hr 0.00 in0.0 mm
01:45 AM 67.0°F19.4°C 66.7°F19.3°C 99% 0.1 mph W0.2 kmh W 0.7 mph1.1 kmh 29.96 in1014.6 mb 0.00 in0.0 mm 0.00 in/hr0.0 mm/hr 0.00 in0.0 mm
02:00 AM 66.8°F19.3°C 66.6°F19.2°C 99% 0.7 mph N1.1 kmh N 2.2 mph3.5 kmh 29.96 in1014.6 mb 0.00 in0.0 mm 0.00 in/hr0.0 mm/hr 0.00 in0.0 mm
02:15 AM 66.5°F19.2°C 66.2°F19.0°C 99% Calm Calm -- 29.96 in1014.6 mb 0.00 in0.0 mm 0.00 in/hr0.0 mm/hr 0.00 in0.0 mm
02:30 AM 66.1°F18.9°C 65.8°F18.8°C 99% 0.7 mph N1.1 kmh N 1.6 mph2.6 kmh 29.95 in1014.2 mb 0.00 in0.0 mm 0.00 in/hr0.0 mm/hr 0.00 in0.0 mm
02:45 AM 65.9°F18.8°C 65.7°F18.7°C 99% 0.1 mph N0.2 kmh N 0.7 mph1.1 kmh 29.95 in1014.2 mb 0.00 in0.0 mm 0.00 in/hr0.0 mm/hr 0.00 in0.0 mm
03:00 AM 65.7°F18.7°C 65.5°F18.6°C 99% Calm Calm -- 29.96 in1014.6 mb 0.00 in0.0 mm 0.00 in/hr0.0 mm/hr 0.00 in0.0 mm
03:15 AM 65.6°F18.7°C 65.3°F18.5°C 99% 0.3 mph NE0.5 kmh NE 1.6 mph2.6 kmh 29.95 in1014.2 mb 0.00 in0.0 mm 0.00 in/hr0.0 mm/hr 0.00 in0.0 mm
03:30 AM 65.4°F18.6°C 65.1°F18.4°C 99% Calm Calm -- 29.95 in1014.2 mb 0.00 in0.0 mm 0.00 in/hr0.0 mm/hr 0.00 in0.0 mm
03:45 AM 65.4°F18.6°C 65.1°F18.4°C 99% Calm Calm -- 29.96 in1014.6 mb 0.00 in0.0 mm 0.00 in/hr0.0 mm/hr 0.00 in0.0 mm
04:00 AM 65.0°F18.3°C 64.8°F18.2°C 99% 0.1 mph SE0.2 kmh SE 0.7 mph1.1 kmh 29.95 in1014.2 mb 0.00 in0.0 mm 0.00 in/hr0.0 mm/hr 0.00 in0.0 mm
04:15 AM 65.0°F18.3°C 64.8°F18.2°C 99% 0.3 mph SE0.5 kmh SE 1.6 mph2.6 kmh 29.95 in1014.2 mb 0.00 in0.0 mm 0.00 in/hr0.0 mm/hr 0.00 in0.0 mm
04:30 AM 64.8°F18.2°C 64.6°F18.1°C 99% 0.7 mph ENE1.1 kmh ENE 2.2 mph3.5 kmh 29.96 in1014.6 mb 0.00 in0.0 mm 0.00 in/hr0.0 mm/hr 0.00 in0.0 mm
04:45 AM 64.8°F18.2°C 64.6°F18.1°C 99% Calm Calm -- 29.95 in1014.2 mb 0.00 in0.0 mm 0.00 in/hr0.0 mm/hr 0.00 in0.0 mm
05:00 AM 65.2°F18.4°C 64.9°F18.3°C 99% Calm Calm -- 29.95 in1014.2 mb 0.00 in0.0 mm 0.00 in/hr0.0 mm/hr 0.00 in0.0 mm
05:15 AM 65.2°F18.4°C 64.9°F18.3°C 99% 0.2 mph N0.3 kmh N 1.6 mph2.6 kmh 29.96 in1014.6 mb 0.00 in0.0 mm 0.00 in/hr0.0 mm/hr 0.00 in0.0 mm
05:30 AM 65.2°F18.4°C 64.9°F18.3°C 99% 0.1 mph SW0.2 kmh SW 0.7 mph1.1 kmh 29.96 in1014.6 mb 0.00 in0.0 mm 0.00 in/hr0.0 mm/hr 0.00 in0.0 mm
05:45 AM 65.4°F18.6°C 65.1°F18.4°C 99% 0.3 mph W0.5 kmh W 1.6 mph2.6 kmh 29.97 in1014.9 mb 0.00 in0.0 mm 0.00 in/hr0.0 mm/hr 0.00 in0.0 mm
06:00 AM 65.7°F18.7°C 65.5°F18.6°C 99% Calm Calm -- 29.97 in1014.9 mb 0.00 in0.0 mm 0.00 in/hr0.0 mm/hr 0.00 in0.0 mm
06:15 AM 65.7°F18.7°C 65.5°F18.6°C 99% Calm Calm -- 29.98 in1015.2 mb 0.00 in0.0 mm 0.00 in/hr0.0 mm/hr 0.00 in0.0 mm
06:30 AM 65.9°F18.8°C 65.7°F18.7°C 99% 0.1 mph SW0.2 kmh SW 0.7 mph1.1 kmh 29.98 in1015.2 mb 0.00 in0.0 mm 0.00 in/hr0.0 mm/hr 0.00 in0.0 mm
06:45 AM 65.7°F18.7°C 65.5°F18.6°C 99% 0.1 mph NE0.2 kmh NE 1.6 mph2.6 kmh 29.99 in1015.6 mb 0.00 in0.0 mm 0.00 in/hr0.0 mm/hr 0.00 in0.0 mm
07:00 AM 65.7°F18.7°C 65.5°F18.6°C 99% Calm Calm -- 29.99 in1015.6 mb 0.00 in0.0 mm 0.00 in/hr0.0 mm/hr 0.00 in0.0 mm
07:15 AM 65.7°F18.7°C 65.5°F18.6°C 99% 0.1 mph SW0.2 kmh SW 0.7 mph1.1 kmh 30.00 in1015.9 mb 0.00 in0.0 mm 0.00 in/hr0.0 mm/hr 0.00 in0.0 mm
07:30 AM 66.5°F19.2°C 66.2°F19.0°C 99% 1.9 mph SSE3.1 kmh SSE 3.1 mph5.0 kmh 30.00 in1015.9 mb 0.00 in0.0 mm 0.00 in/hr0.0 mm/hr 0.00 in0.0 mm
07:45 AM 67.2°F19.6°C 66.9°F19.4°C 99% 2.0 mph SE3.2 kmh SE 2.2 mph3.5 kmh 30.00 in1015.9 mb 0.00 in0.0 mm 0.00 in/hr0.0 mm/hr 0.00 in0.0 mm
08:00 AM 67.7°F19.8°C 67.5°F19.7°C 99% 1.5 mph SE2.4 kmh SE 2.2 mph3.5 kmh 30.00 in1015.9 mb 0.00 in0.0 mm 0.00 in/hr0.0 mm/hr 0.00 in0.0 mm
08:15 AM 68.4°F20.2°C 68.2°F20.1°C 99% 1.8 mph SE2.9 kmh SE 2.2 mph3.5 kmh 30.00 in1015.9 mb 0.00 in0.0 mm 0.00 in/hr0.0 mm/hr 0.00 in0.0 mm
08:30 AM 69.0°F20.6°C 69.0°F20.6°C 100% 2.1 mph SE3.4 kmh SE 2.2 mph3.5 kmh 30.00 in1015.9 mb 0.00 in0.0 mm 0.00 in/hr0.0 mm/hr 0.00 in0.0 mm
08:45 AM 70.1°F21.2°C 70.1°F21.2°C 100% 1.7 mph SE2.7 kmh SE 2.2 mph3.5 kmh 29.99 in1015.6 mb 0.00 in0.0 mm 0.00 in/hr0.0 mm/hr 0.00 in0.0 mm
09:00 AM 71.0°F21.7°C 70.1°F21.2°C 97% 3.4 mph SW5.5 kmh SW 4.5 mph7.2 kmh 29.98 in1015.2 mb 0.00 in0.0 mm 0.00 in/hr0.0 mm/hr 0.00 in0.0 mm
09:15 AM 72.2°F22.3°C 71.4°F21.9°C 97% 3.9 mph WSW6.3 kmh WSW 5.4 mph8.7 kmh 29.99 in1015.6 mb 0.00 in0.0 mm 0.00 in/hr0.0 mm/hr 0.00 in0.0 mm
09:30 AM 72.9°F22.7°C 71.5°F21.9°C 95% 2.2 mph SSW3.5 kmh SSW 4.5 mph7.2 kmh 29.99 in1015.6 mb 0.00 in0.0 mm 0.00 in/hr0.0 mm/hr 0.00 in0.0 mm
09:45 AM 72.2°F22.3°C 69.5°F20.8°C 91% 3.1 mph N5.0 kmh N 4.5 mph7.2 kmh 30.01 in1016.3 mb 0.05 in1.3 mm 0.20 in/hr5.1 mm/hr 0.05 in1.3 mm
10:00 AM 69.7°F20.9°C 67.0°F19.4°C 91% 1.6 mph SE2.6 kmh SE 3.1 mph5.0 kmh 30.01 in1016.3 mb 0.26 in6.6 mm 0.28 in/hr7.1 mm/hr 0.26 in6.6 mm
10:15 AM 67.2°F19.6°C 64.5°F18.1°C 91% 3.1 mph SE5.0 kmh SE 6.0 mph9.7 kmh 30.01 in1016.3 mb 0.31 in7.9 mm 0.20 in/hr5.1 mm/hr 0.31 in7.9 mm
10:30 AM 65.7°F18.7°C 63.7°F17.6°C 93% 2.1 mph SE3.4 kmh SE 2.2 mph3.5 kmh 30.01 in1016.3 mb 0.32 in8.1 mm 0.04 in/hr1.0 mm/hr 0.32 in8.1 mm
10:45 AM 65.7°F18.7°C 64.3°F17.9°C 95% 2.1 mph SE3.4 kmh SE 3.1 mph5.0 kmh 30.01 in1016.3 mb 0.24 in6.1 mm 0.00 in/hr0.0 mm/hr 0.32 in8.1 mm
11:00 AM 66.6°F19.2°C 65.8°F18.8°C 97% 2.1 mph SSE3.4 kmh SSE 3.1 mph5.0 kmh 30.00 in1015.9 mb 0.06 in1.5 mm 0.00 in/hr0.0 mm/hr 0.32 in8.1 mm
11:15 AM 67.4°F19.7°C 66.5°F19.2°C 97% 1.4 mph SSE2.3 kmh SSE 1.6 mph2.6 kmh 30.00 in1015.9 mb 0.01 in0.3 mm 0.00 in/hr0.0 mm/hr 0.32 in8.1 mm
11:30 AM 68.4°F20.2°C 68.5°F20.3°C 100% 2.8 mph S4.5 kmh S 6.0 mph9.7 kmh 30.00 in1015.9 mb 0.00 in0.0 mm 0.00 in/hr0.0 mm/hr 0.32 in8.1 mm
11:45 AM 69.3°F20.7°C 69.4°F20.8°C 100% 1.2 mph S1.9 kmh S 2.2 mph3.5 kmh 30.00 in1015.9 mb 0.00 in0.0 mm 0.00 in/hr0.0 mm/hr 0.32 in8.1 mm
12:00 PM 70.4°F21.3°C 70.5°F21.4°C 100% 2.7 mph S4.3 kmh S 4.5 mph7.2 kmh 29.99 in1015.6 mb 0.00 in0.0 mm 0.00 in/hr0.0 mm/hr 0.32 in8.1 mm
12:15 PM 71.3°F21.8°C 70.5°F21.4°C 97% 1.1 mph ESE1.8 kmh ESE 2.2 mph3.5 kmh 29.98 in1015.2 mb 0.00 in0.0 mm 0.00 in/hr0.0 mm/hr 0.32 in8.1 mm
12:30 PM 72.6°F22.6°C 71.7°F22.1°C 97% 4.7 mph SW7.6 kmh SW 6.0 mph9.7 kmh 29.98 in1015.2 mb 0.00 in0.0 mm 0.00 in/hr0.0 mm/hr 0.32 in8.1 mm
12:45 PM 73.7°F23.2°C 72.2°F22.3°C 95% 2.0 mph S3.2 kmh S 3.1 mph5.0 kmh 29.98 in1015.2 mb 0.00 in0.0 mm 0.00 in/hr0.0 mm/hr 0.32 in8.1 mm
01:00 PM 74.7°F23.7°C 71.7°F22.1°C 90% 2.7 mph S4.3 kmh S 4.5 mph7.2 kmh 29.97 in1014.9 mb 0.00 in0.0 mm 0.00 in/hr0.0 mm/hr 0.32 in8.1 mm
01:15 PM 75.8°F24.3°C 71.0°F21.7°C 85% 1.9 mph W3.1 kmh W 3.1 mph5.0 kmh 29.98 in1015.2 mb 0.00 in0.0 mm 0.00 in/hr0.0 mm/hr 0.32 in8.1 mm
01:30 PM 77.1°F25.1°C 70.8°F21.6°C 81% 1.8 mph SW2.9 kmh SW 3.8 mph6.1 kmh 29.98 in1015.2 mb 0.00 in0.0 mm 0.00 in/hr0.0 mm/hr 0.32 in8.1 mm
01:45 PM 76.5°F24.7°C 70.0°F21.1°C 80% 0.3 mph W0.5 kmh W 1.6 mph2.6 kmh 29.98 in1015.2 mb 0.00 in0.0 mm 0.00 in/hr0.0 mm/hr 0.32 in8.1 mm
02:00 PM 75.8°F24.3°C 69.6°F20.9°C 81% 1.7 mph SSE2.7 kmh SSE 2.2 mph3.5 kmh 29.97 in1014.9 mb 0.00 in0.0 mm 0.00 in/hr0.0 mm/hr 0.32 in8.1 mm
02:15 PM 74.9°F23.8°C 68.7°F20.4°C 81% 1.6 mph SSW2.6 kmh SSW 3.1 mph5.0 kmh 29.97 in1014.9 mb 0.00 in0.0 mm 0.00 in/hr0.0 mm/hr 0.32 in8.1 mm
02:30 PM 74.2°F23.4°C 68.7°F20.4°C 83% 1.9 mph S3.1 kmh S 2.2 mph3.5 kmh 29.98 in1015.2 mb 0.00 in0.0 mm 0.00 in/hr0.0 mm/hr 0.32 in8.1 mm
02:45 PM 73.3°F22.9°C 68.6°F20.3°C 85% 1.8 mph SSW2.9 kmh SSW 2.2 mph3.5 kmh 29.97 in1014.9 mb 0.00 in0.0 mm 0.00 in/hr0.0 mm/hr 0.32 in8.1 mm
03:00 PM 73.5°F23.1°C 69.1°F20.6°C 86% 1.1 mph SSW1.8 kmh SSW 1.6 mph2.6 kmh 29.96 in1014.6 mb 0.00 in0.0 mm 0.00 in/hr0.0 mm/hr 0.32 in8.1 mm
03:15 PM 75.5°F24.2°C 71.0°F21.7°C 86% 2.4 mph WNW3.9 kmh WNW 3.8 mph6.1 kmh 29.96 in1014.6 mb 0.00 in0.0 mm 0.00 in/hr0.0 mm/hr 0.32 in8.1 mm
03:30 PM 78.2°F25.7°C 71.2°F21.8°C 79% 2.8 mph WSW4.5 kmh WSW 5.4 mph8.7 kmh 29.97 in1014.9 mb 0.00 in0.0 mm 0.00 in/hr0.0 mm/hr 0.32 in8.1 mm
03:45 PM 77.6°F25.3°C 69.9°F21.1°C 77% 2.4 mph WSW3.9 kmh WSW 3.8 mph6.1 kmh 29.98 in1015.2 mb 0.00 in0.0 mm 0.00 in/hr0.0 mm/hr 0.32 in8.1 mm
04:00 PM 76.9°F24.9°C 69.9°F21.1°C 79% 2.1 mph WSW3.4 kmh WSW 3.1 mph5.0 kmh 29.97 in1014.9 mb 0.00 in0.0 mm 0.00 in/hr0.0 mm/hr 0.32 in8.1 mm
04:15 PM 77.1°F25.1°C 70.5°F21.4°C 80% 1.6 mph WSW2.6 kmh WSW 3.1 mph5.0 kmh 29.96 in1014.6 mb 0.00 in0.0 mm 0.00 in/hr0.0 mm/hr 0.32 in8.1 mm
04:30 PM 76.7°F24.8°C 69.8°F21.0°C 79% 0.8 mph SW1.3 kmh SW 2.2 mph3.5 kmh 29.95 in1014.2 mb 0.00 in0.0 mm 0.00 in/hr0.0 mm/hr 0.32 in8.1 mm
04:45 PM 79.1°F26.2°C 72.0°F22.2°C 79% 1.1 mph NNE1.8 kmh NNE 2.2 mph3.5 kmh 29.95 in1014.2 mb 0.00 in0.0 mm 0.00 in/hr0.0 mm/hr 0.32 in8.1 mm
05:00 PM 81.6°F27.6°C 70.0°F21.1°C 68% 2.3 mph WSW3.7 kmh WSW 4.5 mph7.2 kmh 29.95 in1014.2 mb 0.00 in0.0 mm 0.00 in/hr0.0 mm/hr 0.32 in8.1 mm
05:15 PM 82.8°F28.2°C 69.9°F21.1°C 65% 2.3 mph NW3.7 kmh NW 3.1 mph5.0 kmh 29.95 in1014.2 mb 0.00 in0.0 mm 0.00 in/hr0.0 mm/hr 0.32 in8.1 mm
05:30 PM 81.8°F27.7°C 68.9°F20.5°C 65% 4.2 mph NNE6.8 kmh NNE 6.0 mph9.7 kmh 29.95 in1014.2 mb 0.00 in0.0 mm 0.00 in/hr0.0 mm/hr 0.32 in8.1 mm
05:45 PM 78.2°F25.7°C 68.0°F20.0°C 71% 1.3 mph ESE2.1 kmh ESE 2.2 mph3.5 kmh 29.96 in1014.6 mb 0.00 in0.0 mm 0.00 in/hr0.0 mm/hr 0.32 in8.1 mm
06:00 PM 76.5°F24.7°C 68.1°F20.1°C 75% Calm Calm -- 29.96 in1014.6 mb 0.00 in0.0 mm 0.00 in/hr0.0 mm/hr 0.32 in8.1 mm
06:15 PM 75.6°F24.2°C 69.1°F20.6°C 80% Calm Calm -- 29.97 in1014.9 mb 0.00 in0.0 mm 0.00 in/hr0.0 mm/hr 0.32 in8.1 mm
06:30 PM 74.9°F23.8°C 69.1°F20.6°C 82% Calm Calm -- 29.97 in1014.9 mb 0.00 in0.0 mm 0.00 in/hr0.0 mm/hr 0.32 in8.1 mm
06:45 PM 74.4°F23.6°C 68.9°F20.5°C 83% Calm Calm -- 29.96 in1014.6 mb 0.00 in0.0 mm 0.00 in/hr0.0 mm/hr 0.32 in8.1 mm
07:00 PM 74.0°F23.3°C 69.3°F20.7°C 85% Calm Calm -- 29.96 in1014.6 mb 0.00 in0.0 mm 0.00 in/hr0.0 mm/hr 0.32 in8.1 mm
07:15 PM 73.8°F23.2°C 69.4°F20.8°C 86% 1.0 mph N1.6 kmh N 1.6 mph2.6 kmh 29.97 in1014.9 mb 0.00 in0.0 mm 0.00 in/hr0.0 mm/hr 0.32 in8.1 mm
07:30 PM 73.8°F23.2°C 69.8°F21.0°C 87% Calm Calm -- 29.97 in1014.9 mb 0.00 in0.0 mm 0.00 in/hr0.0 mm/hr 0.32 in8.1 mm
07:45 PM 73.1°F22.8°C 68.0°F20.0°C 84% 4.5 mph NE7.2 kmh NE 6.0 mph9.7 kmh 29.98 in1015.2 mb 0.04 in1.0 mm 0.16 in/hr4.1 mm/hr 0.35 in8.9 mm
08:00 PM 71.1°F21.7°C 66.4°F19.1°C 85% 1.6 mph NNE2.6 kmh NNE 3.1 mph5.0 kmh 29.98 in1015.2 mb 0.09 in2.3 mm 0.07 in/hr1.8 mm/hr 0.41 in10.4 mm
08:15 PM 69.7°F20.9°C 66.0°F18.9°C 88% 1.5 mph NNE2.4 kmh NNE 3.1 mph5.0 kmh 29.98 in1015.2 mb 0.09 in2.3 mm 0.00 in/hr0.0 mm/hr 0.41 in10.4 mm
08:30 PM 68.4°F20.2°C 65.4°F18.6°C 90% 1.9 mph N3.1 kmh N 3.1 mph5.0 kmh 29.98 in1015.2 mb 0.09 in2.3 mm 0.00 in/hr0.0 mm/hr 0.41 in10.4 mm
08:45 PM 67.7°F19.8°C 65.0°F18.3°C 91% 0.6 mph SSE1.0 kmh SSE 1.6 mph2.6 kmh 29.98 in1015.2 mb 0.04 in1.0 mm 0.00 in/hr0.0 mm/hr 0.41 in10.4 mm
09:00 PM 67.4°F19.7°C 65.0°F18.3°C 92% Calm Calm -- 29.99 in1015.6 mb 0.00 in0.0 mm 0.00 in/hr0.0 mm/hr 0.41 in10.4 mm
09:15 PM 67.0°F19.4°C 64.9°F18.3°C 93% 0.8 mph SSW1.3 kmh SSW 1.6 mph2.6 kmh 29.99 in1015.6 mb 0.00 in0.0 mm 0.00 in/hr0.0 mm/hr 0.41 in10.4 mm
09:30 PM 67.0°F19.4°C 65.2°F18.4°C 94% Calm Calm -- 29.99 in1015.6 mb 0.00 in0.0 mm 0.00 in/hr0.0 mm/hr 0.41 in10.4 mm
09:45 PM 66.8°F19.3°C 65.4°F18.6°C 95% 1.2 mph SW1.9 kmh SW 2.2 mph3.5 kmh 30.00 in1015.9 mb 0.00 in0.0 mm 0.00 in/hr0.0 mm/hr 0.41 in10.4 mm
10:00 PM 67.0°F19.4°C 65.5°F18.6°C 95% Calm Calm -- 29.99 in1015.6 mb 0.00 in0.0 mm 0.00 in/hr0.0 mm/hr 0.41 in10.4 mm
10:15 PM 67.0°F19.4°C 65.5°F18.6°C 95% Calm Calm -- 30.00 in1015.9 mb 0.00 in0.0 mm 0.00 in/hr0.0 mm/hr 0.41 in10.4 mm
10:30 PM 66.8°F19.3°C 66.0°F18.9°C 97% Calm Calm -- 30.00 in1015.9 mb 0.01 in0.3 mm 0.04 in/hr1.0 mm/hr 0.43 in10.9 mm
10:45 PM 66.8°F19.3°C 66.0°F18.9°C 97% Calm Calm -- 29.99 in1015.6 mb 0.01 in0.3 mm 0.00 in/hr0.0 mm/hr 0.43 in10.9 mm
11:00 PM 67.0°F19.4°C 66.2°F19.0°C 97% Calm Calm -- 29.99 in1015.6 mb 0.01 in0.3 mm 0.00 in/hr0.0 mm/hr 0.43 in10.9 mm
11:15 PM 67.0°F19.4°C 66.2°F19.0°C 97% Calm Calm -- 30.00 in1015.9 mb 0.01 in0.3 mm 0.00 in/hr0.0 mm/hr 0.43 in10.9 mm
11:30 PM 66.6°F19.2°C 66.7°F19.3°C 100% Calm Calm -- 29.99 in1015.6 mb 0.00 in0.0 mm 0.00 in/hr0.0 mm/hr 0.43 in10.9 mm
11:45 PM 66.3°F19.1°C 66.3°F19.1°C 100% 0.4 mph SE0.6 kmh SE 1.6 mph2.6 kmh 30.00 in1015.9 mb 0.00 in0.0 mm 0.00 in/hr0.0 mm/hr 0.43 in10.9 mm